createdAt,value
2023-04-23T00:00:49.785Z,15.21
2023-04-23T00:03:22.870Z,15.25
2023-04-23T00:05:53.161Z,15.20
2023-04-23T00:08:21.396Z,15.19
2023-04-23T00:10:49.384Z,15.15
2023-04-23T00:13:18.421Z,15.16
2023-04-23T00:15:46.783Z,15.14
2023-04-23T00:18:16.916Z,15.06
2023-04-23T00:20:44.283Z,15.00
2023-04-23T00:23:11.711Z,15.00
2023-04-23T00:25:39.182Z,15.00
2023-04-23T00:28:06.580Z,15.00
2023-04-23T00:30:35.344Z,14.39
2023-04-23T00:33:02.769Z,14.39
2023-04-23T00:35:30.165Z,14.39
2023-04-23T00:37:57.541Z,14.39
2023-04-23T00:40:25.129Z,13.98
2023-04-23T00:42:53.600Z,13.98
2023-04-23T00:45:21.153Z,13.98
2023-04-23T00:47:50.698Z,13.98
2023-04-23T00:50:18.705Z,13.98
2023-04-23T00:52:46.076Z,13.98
2023-04-23T00:55:14.965Z,13.98
2023-04-23T00:57:42.962Z,13.98
2023-04-23T01:00:13.903Z,13.98
2023-04-23T01:02:44.290Z,13.98
2023-04-23T01:05:15.800Z,13.98
2023-04-23T01:07:45.108Z,13.98
2023-04-23T01:12:42.208Z,13.98
2023-04-23T01:15:10.888Z,13.98
2023-04-23T01:17:38.426Z,13.98
2023-04-23T01:20:08.311Z,13.98
2023-04-23T01:22:37.818Z,13.98
2023-04-23T01:25:08.509Z,13.98
2023-04-23T01:27:36.089Z,13.98
2023-04-23T01:30:04.805Z,13.98
2023-04-23T01:32:33.185Z,13.98
2023-04-23T01:35:01.168Z,13.98
2023-04-23T01:37:29.941Z,13.98
2023-04-23T01:39:59.462Z,13.98
2023-04-23T01:42:26.865Z,13.98
2023-04-23T01:44:54.287Z,13.98
2023-04-23T01:47:22.295Z,13.98
2023-04-23T01:49:50.085Z,13.98
2023-04-23T01:52:17.534Z,13.98
2023-04-23T01:54:44.931Z,13.98
2023-04-23T01:57:13.714Z,13.98
2023-04-23T01:59:41.629Z,13.98
2023-04-23T02:02:13.609Z,13.98
2023-04-23T02:04:45.155Z,13.98
2023-04-23T02:07:12.882Z,13.98
2023-04-23T02:09:40.700Z,13.98
2023-04-23T02:12:08.146Z,13.98
2023-04-23T02:14:36.887Z,13.98
2023-04-23T02:17:04.313Z,13.98
2023-04-23T02:19:34.497Z,13.98
2023-04-23T02:22:01.982Z,13.98
2023-04-23T02:24:29.474Z,13.98
2023-04-23T02:26:58.113Z,13.98
2023-04-23T02:29:26.969Z,13.98
2023-04-23T02:32:00.185Z,13.98
2023-04-23T02:34:27.712Z,13.98
2023-04-23T02:36:55.367Z,13.98
2023-04-23T02:39:22.746Z,13.98
2023-04-23T02:41:50.759Z,13.98
2023-04-23T02:44:18.164Z,13.98
2023-04-23T02:46:46.386Z,13.98
2023-04-23T02:49:15.418Z,13.98
2023-04-23T02:51:43.161Z,12.17
2023-04-23T02:54:11.141Z,12.17
2023-04-23T02:56:38.673Z,12.17
2023-04-23T02:59:06.445Z,12.17
2023-04-23T03:01:33.854Z,12.17
2023-04-23T03:04:03.666Z,12.17
2023-04-23T03:06:34.378Z,12.17
2023-04-23T03:09:01.852Z,12.17
2023-04-23T03:11:29.224Z,12.17
2023-04-23T03:13:56.619Z,12.17
2023-04-23T03:16:24.063Z,12.17
2023-04-23T03:18:51.493Z,12.17
2023-04-23T03:21:18.972Z,12.17
2023-04-23T03:23:47.766Z,12.17
2023-04-23T03:26:15.197Z,12.17
2023-04-23T03:28:44.591Z,12.17
2023-04-23T03:31:12.294Z,12.17
2023-04-23T03:33:39.676Z,12.17
2023-04-23T03:36:07.402Z,11.86
2023-04-23T03:38:34.816Z,11.86
2023-04-23T03:41:03.514Z,11.97
2023-04-23T03:43:30.998Z,11.96
2023-04-23T03:45:58.442Z,11.94
2023-04-23T03:48:26.142Z,11.94
2023-04-23T03:50:53.547Z,11.94
2023-04-23T03:53:21.555Z,11.94
2023-04-23T03:55:48.994Z,11.94
2023-04-23T03:58:19.309Z,11.94
2023-04-23T04:00:47.229Z,11.94
2023-04-23T04:03:14.847Z,11.94
2023-04-23T04:05:42.486Z,11.94
2023-04-23T04:08:09.937Z,11.94
2023-04-23T04:10:37.431Z,11.94
2023-04-23T04:13:04.839Z,11.94
2023-04-23T04:15:33.870Z,11.94
2023-04-23T04:18:01.449Z,11.94
2023-04-23T04:20:29.597Z,11.94
2023-04-23T04:22:57.223Z,11.94
2023-04-23T04:25:24.744Z,11.94
2023-04-23T04:27:52.626Z,11.94
2023-04-23T04:30:19.999Z,11.94
2023-04-23T04:32:50.814Z,11.94
2023-04-23T04:35:18.857Z,11.94
2023-04-23T04:37:46.233Z,11.94
2023-04-23T04:40:15.185Z,11.94
2023-04-23T04:42:42.729Z,11.94
2023-04-23T04:45:11.006Z,11.94
2023-04-23T04:47:38.426Z,11.94
2023-04-23T04:50:08.415Z,11.94
2023-04-23T04:52:38.394Z,11.94
2023-04-23T04:55:06.940Z,11.94
2023-04-23T04:57:34.334Z,11.94
2023-04-23T05:00:05.033Z,11.94
2023-04-23T05:02:32.614Z,11.94
2023-04-23T05:05:00.173Z,11.94
2023-04-23T05:07:28.856Z,11.94
2023-04-23T05:09:57.911Z,11.94
2023-04-23T05:12:25.277Z,11.94
2023-04-23T05:14:54.259Z,11.94
2023-04-23T05:17:21.810Z,11.94
2023-04-23T05:19:49.186Z,11.94
2023-04-23T05:22:18.215Z,11.94
2023-04-23T05:24:46.995Z,11.94
2023-04-23T05:27:14.362Z,11.94
2023-04-23T05:29:41.959Z,11.94
2023-04-23T05:32:09.415Z,11.94
2023-04-23T05:34:36.847Z,11.94
2023-04-23T05:37:04.249Z,11.94
2023-04-23T05:39:31.594Z,11.94
2023-04-23T05:42:00.283Z,11.94
2023-04-23T05:44:27.647Z,11.94
2023-04-23T05:46:55.240Z,11.94
2023-04-23T05:49:24.172Z,11.94
2023-04-23T05:51:51.629Z,11.94
2023-04-23T05:54:18.988Z,11.94
2023-04-23T05:56:46.767Z,11.94
2023-04-23T05:59:15.504Z,11.94
2023-04-23T06:01:42.998Z,11.94
2023-04-23T06:04:10.580Z,11.94
2023-04-23T06:06:38.094Z,11.94
2023-04-23T06:09:05.604Z,11.94
2023-04-23T06:11:33.154Z,11.94
2023-04-23T06:14:00.545Z,11.94
2023-04-23T06:16:29.409Z,11.94
2023-04-23T06:18:56.960Z,11.94
2023-04-23T06:21:26.353Z,11.94
2023-04-23T06:23:54.549Z,11.94
2023-04-23T06:26:22.040Z,11.94
2023-04-23T06:28:49.422Z,11.94
2023-04-23T06:31:17.028Z,11.94
2023-04-23T06:33:45.744Z,11.94
2023-04-23T06:36:14.598Z,11.94
2023-04-23T06:38:44.558Z,11.94
2023-04-23T06:41:12.735Z,11.94
2023-04-23T06:43:40.186Z,11.94
2023-04-23T06:46:07.546Z,11.94
2023-04-23T06:48:34.931Z,11.94
2023-04-23T06:51:03.850Z,11.94
2023-04-23T06:53:31.199Z,11.94
2023-04-23T06:55:58.729Z,11.94
2023-04-23T06:58:31.087Z,11.94
2023-04-23T07:00:59.844Z,11.94
2023-04-23T07:03:28.231Z,11.94
2023-04-23T07:05:55.702Z,11.94
2023-04-23T07:08:24.488Z,11.94
2023-04-23T07:10:53.186Z,11.94
2023-04-23T07:13:20.596Z,11.94
2023-04-23T07:15:48.932Z,11.94
2023-04-23T07:18:16.386Z,11.94
2023-04-23T07:20:44.009Z,11.94
2023-04-23T07:23:12.063Z,11.94
2023-04-23T07:25:41.028Z,11.94
2023-04-23T07:28:08.400Z,11.94
2023-04-23T07:30:35.798Z,11.94
2023-04-23T07:33:03.446Z,11.94
2023-04-23T07:35:30.930Z,11.94
2023-04-23T07:37:58.433Z,11.94
2023-04-23T07:40:26.061Z,11.94
2023-04-23T07:42:54.729Z,11.94
2023-04-23T07:45:22.141Z,11.94
2023-04-23T07:47:51.353Z,11.94
2023-04-23T07:50:18.775Z,11.94
2023-04-23T07:52:46.220Z,11.94
2023-04-23T07:55:13.603Z,11.94
2023-04-23T07:57:41.026Z,11.94
2023-04-23T08:00:11.296Z,11.94
2023-04-23T08:02:38.887Z,11.94
2023-04-23T08:05:08.019Z,11.94
2023-04-23T08:07:35.680Z,11.94
2023-04-23T08:10:05.993Z,11.94
2023-04-23T08:12:35.793Z,11.94
2023-04-23T08:15:03.388Z,11.94
2023-04-23T08:17:32.141Z,11.94
2023-04-23T08:19:59.562Z,11.94
2023-04-23T08:22:26.945Z,11.94
2023-04-23T08:24:54.317Z,11.94
2023-04-23T08:27:22.651Z,11.94
2023-04-23T08:29:50.324Z,11.94
2023-04-23T08:32:17.817Z,11.94
2023-04-23T08:34:46.567Z,11.94
2023-04-23T08:37:23.092Z,11.94
2023-04-23T08:39:57.461Z,16.86
2023-04-23T08:42:37.894Z,16.86
2023-04-23T08:45:06.478Z,17.72
2023-04-23T08:47:35.067Z,18.13
2023-04-23T08:50:05.373Z,18.38
2023-04-23T08:52:35.166Z,18.75
2023-04-23T08:55:04.577Z,18.93
2023-04-23T08:57:32.612Z,18.67
2023-04-23T09:00:01.388Z,18.93
2023-04-23T09:02:29.814Z,19.70
2023-04-23T09:04:59.607Z,19.68
2023-04-23T09:07:28.387Z,19.79
2023-04-23T09:09:56.440Z,19.52
2023-04-23T09:12:24.081Z,19.64
2023-04-23T09:14:51.924Z,20.02
2023-04-23T09:17:19.461Z,19.79
2023-04-23T09:19:47.184Z,19.78
2023-04-23T09:22:14.556Z,18.89
2023-04-23T09:24:44.177Z,18.37
2023-04-23T09:27:11.606Z,19.10
2023-04-23T09:29:39.024Z,19.46
2023-04-23T09:32:09.111Z,19.26
2023-04-23T09:34:37.692Z,19.99
2023-04-23T09:37:07.832Z,20.92
2023-04-23T09:39:35.771Z,21.02
2023-04-23T09:42:08.343Z,21.07
2023-04-23T09:44:35.949Z,21.98
2023-04-23T09:47:09.526Z,22.05
2023-04-23T09:49:46.989Z,20.72
2023-04-23T09:52:16.251Z,21.63
2023-04-23T09:54:46.180Z,22.79
2023-04-23T09:57:15.573Z,21.82
2023-04-23T09:59:48.820Z,22.61
2023-04-23T10:02:17.560Z,23.03
2023-04-23T10:04:45.350Z,23.31
2023-04-23T10:09:44.903Z,25.88
2023-04-23T10:12:31.442Z,23.96
2023-04-23T10:15:01.648Z,26.28
2023-04-23T10:17:29.261Z,25.73
2023-04-23T10:19:56.656Z,26.05
2023-04-23T10:22:25.681Z,24.23
2023-04-23T10:24:57.247Z,22.26
2023-04-23T10:27:44.170Z,22.07
2023-04-23T10:30:17.819Z,20.54
2023-04-23T10:32:46.300Z,20.35
2023-04-23T10:35:13.720Z,19.96
2023-04-23T10:37:41.707Z,20.13
2023-04-23T10:40:12.734Z,19.82
2023-04-23T10:42:40.971Z,19.68
2023-04-23T10:45:24.193Z,20.61
2023-04-23T10:47:54.214Z,21.23
2023-04-23T10:50:24.302Z,20.79
2023-04-23T10:52:53.642Z,20.66
2023-04-23T10:55:23.886Z,19.97
2023-04-23T10:58:02.229Z,20.95
2023-04-23T11:00:45.367Z,21.75
2023-04-23T11:03:31.423Z,21.80
2023-04-23T11:05:59.239Z,20.90
2023-04-23T11:08:26.943Z,22.18
2023-04-23T11:10:57.169Z,22.62
2023-04-23T11:13:25.951Z,22.48
2023-04-23T11:16:22.295Z,22.43
2023-04-23T11:18:57.206Z,22.84
2023-04-23T11:21:56.934Z,23.22
2023-04-23T11:24:24.541Z,23.93
2023-04-23T11:26:54.357Z,24.48
2023-04-23T11:29:22.973Z,25.37
2023-04-23T11:32:01.681Z,24.20
2023-04-23T11:34:31.114Z,24.11
2023-04-23T11:37:00.687Z,24.38
2023-04-23T11:39:28.276Z,27.08
2023-04-23T11:41:56.999Z,28.06
2023-04-23T11:44:24.429Z,27.49
2023-04-23T11:46:53.264Z,25.19
2023-04-23T11:49:21.665Z,24.82
2023-04-23T11:51:49.519Z,25.21
2023-04-23T11:54:16.941Z,25.14
2023-04-23T11:56:44.762Z,24.29
2023-04-23T11:59:12.198Z,23.51
2023-04-23T12:01:44.099Z,22.44
2023-04-23T12:04:14.694Z,21.70
2023-04-23T12:06:44.342Z,21.01
2023-04-23T12:09:12.950Z,20.20
2023-04-23T12:11:42.295Z,18.13
2023-04-23T12:14:11.045Z,18.13
2023-04-23T12:16:41.990Z,14.23
2023-04-23T12:19:11.685Z,13.88
2023-04-23T12:21:56.003Z,13.53
2023-04-23T12:24:24.404Z,13.53
2023-04-23T12:26:55.905Z,13.32
2023-04-23T12:29:25.651Z,13.32
2023-04-23T12:31:54.437Z,13.32
2023-04-23T12:34:22.399Z,13.32
2023-04-23T12:36:52.918Z,13.32
2023-04-23T12:39:22.117Z,13.32
2023-04-23T12:41:51.610Z,13.32
2023-04-23T12:44:20.395Z,13.32
2023-04-23T12:46:57.701Z,13.32
2023-04-23T12:49:26.920Z,13.32
2023-04-23T12:52:01.184Z,13.32
2023-04-23T12:54:31.166Z,13.32
2023-04-23T12:56:59.238Z,13.32
2023-04-23T12:59:29.914Z,13.32
2023-04-23T13:02:02.356Z,13.32
2023-04-23T13:04:31.704Z,13.32
2023-04-23T13:07:03.055Z,13.32
2023-04-23T13:09:30.650Z,13.32
2023-04-23T13:11:59.802Z,13.32
2023-04-23T13:14:27.854Z,13.32
2023-04-23T13:16:55.726Z,25.25
2023-04-23T13:19:26.238Z,25.17
2023-04-23T13:21:55.592Z,25.97
2023-04-23T13:24:24.315Z,25.97
2023-04-23T13:26:51.675Z,25.97
2023-04-23T13:29:19.059Z,26.49
2023-04-23T13:31:46.583Z,25.91
2023-04-23T13:34:14.067Z,24.94
2023-04-23T13:36:42.080Z,24.75
2023-04-23T13:39:10.998Z,23.58
2023-04-23T13:41:40.982Z,23.01
2023-04-23T13:44:08.489Z,23.13
2023-04-23T13:46:36.377Z,23.07
2023-04-23T13:49:03.775Z,23.07
2023-04-23T13:51:34.715Z,23.32
2023-04-23T13:54:03.411Z,23.47
2023-04-23T13:56:31.610Z,22.94
2023-04-23T13:59:18.420Z,22.81
2023-04-23T14:01:49.392Z,23.13
2023-04-23T14:04:16.957Z,23.38
2023-04-23T14:06:44.462Z,23.43
2023-04-23T14:09:12.366Z,24.89
2023-04-23T14:11:41.299Z,26.85
2023-04-23T14:14:10.041Z,27.91
2023-04-23T14:16:40.128Z,30.87
2023-04-23T14:19:07.618Z,32.23
2023-04-23T14:21:36.053Z,31.27
2023-04-23T14:24:09.627Z,30.11
2023-04-23T14:26:47.935Z,29.96
2023-04-23T14:29:29.935Z,30.07
2023-04-23T14:31:59.824Z,31.92
2023-04-23T14:34:27.722Z,33.03
2023-04-23T14:36:55.299Z,33.19
2023-04-23T14:39:23.314Z,32.31
2023-04-23T14:41:50.881Z,31.12
2023-04-23T14:44:18.317Z,30.78
2023-04-23T14:46:49.771Z,29.77
2023-04-23T14:49:17.158Z,31.00
2023-04-23T14:51:44.587Z,30.87
2023-04-23T14:54:12.042Z,30.45
2023-04-23T14:56:39.412Z,30.19
2023-04-23T14:59:06.791Z,29.39
2023-04-23T15:01:34.318Z,30.03
2023-04-23T15:04:03.175Z,31.34
2023-04-23T15:06:30.849Z,32.10
2023-04-23T15:08:59.305Z,28.60
2023-04-23T15:11:26.748Z,26.44
2023-04-23T15:14:01.818Z,23.34
2023-04-23T15:16:47.689Z,21.98
2023-04-23T15:19:18.780Z,22.16
2023-04-23T15:21:47.000Z,21.99
2023-04-23T15:24:14.996Z,22.10
2023-04-23T15:26:42.521Z,21.39
2023-04-23T15:29:10.494Z,21.35
2023-04-23T15:31:38.434Z,21.44
2023-04-23T15:34:08.708Z,20.79
2023-04-23T15:36:38.423Z,19.95
2023-04-23T15:39:06.846Z,19.59
2023-04-23T15:41:36.146Z,19.13
2023-04-23T15:44:05.275Z,18.58
2023-04-23T15:46:32.650Z,18.23
2023-04-23T15:49:00.118Z,18.09
2023-04-23T15:51:27.505Z,17.90
2023-04-23T15:53:57.202Z,17.53
2023-04-23T15:56:24.585Z,17.45
2023-04-23T15:58:53.384Z,17.63
2023-04-23T16:01:20.879Z,17.56
2023-04-23T16:04:01.864Z,17.53
2023-04-23T16:06:36.047Z,17.50
2023-04-23T16:09:08.176Z,17.38
2023-04-23T16:11:36.463Z,17.28
2023-04-23T16:14:04.607Z,17.14
2023-04-23T16:16:32.205Z,17.30
2023-04-23T16:19:01.668Z,17.34
2023-04-23T16:21:29.137Z,17.30
2023-04-23T16:23:56.764Z,17.40
2023-04-23T16:26:25.585Z,17.41
2023-04-23T16:29:05.703Z,17.58
2023-04-23T16:31:39.251Z,17.79
2023-04-23T16:34:06.777Z,17.96
2023-04-23T16:36:34.464Z,17.74
2023-04-23T16:39:01.858Z,17.69
2023-04-23T16:41:31.486Z,17.61
2023-04-23T16:43:58.886Z,17.61
2023-04-23T16:46:30.133Z,17.80
2023-04-23T16:48:57.762Z,17.91
2023-04-23T16:51:28.315Z,18.01
2023-04-23T16:53:55.860Z,17.94
2023-04-23T16:56:23.776Z,17.86
2023-04-23T16:58:52.478Z,17.98
2023-04-23T17:01:20.157Z,17.99
2023-04-23T17:03:47.651Z,18.16
2023-04-23T17:06:25.569Z,18.21
2023-04-23T17:08:53.281Z,18.06
2023-04-23T17:11:20.759Z,17.91
2023-04-23T17:13:48.276Z,17.46
2023-04-23T17:16:17.036Z,17.25
2023-04-23T17:18:44.508Z,16.97
2023-04-23T17:21:12.425Z,17.05
2023-04-23T17:23:40.066Z,17.08
2023-04-23T17:26:07.667Z,16.99
2023-04-23T17:28:35.558Z,16.92
2023-04-23T17:31:03.898Z,16.87
2023-04-23T17:33:34.720Z,16.74
2023-04-23T17:36:02.124Z,16.66
2023-04-23T17:38:29.652Z,16.40
2023-04-23T17:40:59.284Z,16.06
2023-04-23T17:43:27.247Z,15.90
2023-04-23T17:45:54.652Z,15.71
2023-04-23T17:48:23.251Z,15.53
2023-04-23T17:50:53.277Z,15.40
2023-04-23T17:53:20.945Z,15.40
2023-04-23T17:55:48.383Z,15.01
2023-04-23T17:58:15.864Z,15.01
2023-04-23T18:00:45.362Z,15.01
2023-04-23T18:03:16.418Z,15.01
2023-04-23T18:05:44.896Z,14.60
2023-04-23T18:08:16.149Z,14.60
2023-04-23T18:10:45.284Z,14.60
2023-04-23T18:13:13.362Z,14.60
2023-04-23T18:15:41.952Z,14.60
2023-04-23T18:18:09.630Z,14.60
2023-04-23T18:20:38.437Z,14.60
2023-04-23T18:23:06.604Z,14.60
2023-04-23T18:25:35.946Z,14.60
2023-04-23T18:28:04.422Z,14.60
2023-04-23T18:30:31.881Z,14.60
2023-04-23T18:33:08.621Z,14.60
2023-04-23T18:35:36.072Z,14.60
2023-04-23T18:38:07.661Z,14.60
2023-04-23T18:40:36.395Z,14.60
2023-04-23T18:43:06.010Z,14.60
2023-04-23T18:45:33.635Z,14.60
2023-04-23T18:48:06.148Z,14.60
2023-04-23T18:50:42.164Z,14.60
2023-04-23T18:53:09.825Z,14.60
2023-04-23T18:55:38.545Z,14.60
2023-04-23T18:58:06.007Z,14.60
2023-04-23T19:00:33.509Z,14.60
2023-04-23T19:03:06.471Z,14.60
2023-04-23T19:05:36.907Z,14.60
2023-04-23T19:08:06.755Z,14.60
2023-04-23T19:10:36.049Z,14.60
2023-04-23T19:13:05.898Z,14.60
2023-04-23T19:15:33.351Z,14.60
2023-04-23T19:18:01.392Z,14.60
2023-04-23T19:20:30.925Z,14.60
2023-04-23T19:22:58.393Z,14.60
2023-04-23T19:25:25.786Z,14.60
2023-04-23T19:27:53.449Z,14.60
2023-04-23T19:30:22.142Z,14.60
2023-04-23T19:32:49.543Z,14.60
2023-04-23T19:35:17.594Z,14.60
2023-04-23T19:37:45.151Z,14.60
2023-04-23T19:40:15.794Z,14.60
2023-04-23T19:42:43.431Z,14.60
2023-04-23T19:45:11.624Z,14.60
2023-04-23T19:47:40.459Z,14.60
2023-04-23T19:50:09.664Z,14.60
2023-04-23T19:52:37.797Z,14.60
2023-04-23T19:55:05.995Z,14.60
2023-04-23T19:57:33.470Z,14.60
2023-04-23T20:00:00.817Z,14.60
2023-04-23T20:02:28.244Z,14.60
2023-04-23T20:04:58.358Z,14.60
2023-04-23T20:07:31.806Z,14.60
2023-04-23T20:09:59.286Z,14.60
2023-04-23T20:12:28.043Z,14.60
2023-04-23T20:14:55.713Z,14.60
2023-04-23T20:17:23.519Z,14.60
2023-04-23T20:19:53.789Z,14.60
2023-04-23T20:22:22.514Z,14.60
2023-04-23T20:24:49.923Z,14.60
2023-04-23T20:27:17.312Z,14.60
2023-04-23T20:29:44.837Z,14.60
2023-04-23T20:32:13.598Z,14.60
2023-04-23T20:34:41.534Z,14.60
2023-04-23T20:37:09.153Z,14.60
2023-04-23T20:39:38.239Z,14.60
2023-04-23T20:42:08.688Z,14.60
2023-04-23T20:44:36.243Z,14.60
2023-04-23T20:47:08.276Z,14.60
2023-04-23T20:49:35.789Z,14.60
2023-04-23T20:52:03.313Z,14.60
2023-04-23T20:54:30.928Z,14.60
2023-04-23T20:57:02.834Z,14.60
2023-04-23T20:59:30.949Z,14.60
2023-04-23T21:01:58.414Z,14.60
2023-04-23T21:04:25.917Z,14.60
2023-04-23T21:06:53.457Z,14.60
2023-04-23T21:09:21.031Z,14.60
2023-04-23T21:11:50.556Z,14.60
2023-04-23T21:14:19.342Z,14.60
2023-04-23T21:16:46.772Z,14.60
2023-04-23T21:19:14.160Z,14.60
2023-04-23T21:21:41.596Z,14.60
2023-04-23T21:24:08.959Z,14.60
2023-04-23T21:26:36.515Z,14.60
2023-04-23T21:29:04.661Z,14.60
2023-04-23T21:31:40.921Z,14.60
2023-04-23T21:34:08.377Z,14.60
2023-04-23T21:36:35.811Z,14.60
2023-04-23T21:39:03.203Z,14.60
2023-04-23T21:41:30.768Z,14.60
2023-04-23T21:43:58.183Z,14.60
2023-04-23T21:46:25.732Z,14.60
2023-04-23T21:48:54.478Z,14.60
2023-04-23T21:51:25.788Z,14.60
2023-04-23T21:53:53.329Z,14.60
2023-04-23T21:56:21.486Z,14.60
2023-04-23T21:58:48.939Z,14.60
2023-04-23T22:01:17.328Z,14.60
2023-04-23T22:03:46.500Z,14.60
2023-04-23T22:06:17.623Z,14.60
2023-04-23T22:08:46.198Z,14.60
2023-04-23T22:11:14.310Z,14.60
2023-04-23T22:13:41.800Z,14.60
2023-04-23T22:16:24.417Z,14.60
2023-04-23T22:18:54.718Z,14.60
2023-04-23T22:21:23.473Z,14.60
2023-04-23T22:23:50.985Z,14.60
2023-04-23T22:26:25.268Z,14.60
2023-04-23T22:28:54.705Z,14.60
2023-04-23T22:31:24.258Z,14.60
2023-04-23T22:33:51.682Z,14.60
2023-04-23T22:36:20.673Z,14.60
2023-04-23T22:38:49.574Z,14.60
2023-04-23T22:41:17.125Z,14.60
2023-04-23T22:43:44.503Z,14.60
2023-04-23T22:46:11.972Z,14.60
2023-04-23T22:48:43.897Z,14.60
2023-04-23T22:51:11.868Z,14.60
2023-04-23T22:53:39.295Z,14.60
2023-04-23T22:56:08.206Z,14.60
2023-04-23T22:58:37.032Z,14.60
2023-04-23T23:01:04.659Z,14.60
2023-04-23T23:03:32.763Z,14.60
2023-04-23T23:06:00.252Z,14.60
2023-04-23T23:08:28.916Z,14.60
2023-04-23T23:10:56.455Z,14.60
2023-04-23T23:13:25.671Z,14.60
2023-04-23T23:15:53.042Z,14.60
2023-04-23T23:18:20.468Z,14.60
2023-04-23T23:20:48.138Z,14.60
2023-04-23T23:23:15.591Z,14.60
2023-04-23T23:25:45.955Z,14.60
2023-04-23T23:28:13.349Z,14.60
2023-04-23T23:30:43.476Z,14.60
2023-04-23T23:33:10.931Z,14.60
2023-04-23T23:35:38.618Z,14.60
2023-04-23T23:38:06.147Z,14.60
2023-04-23T23:40:33.523Z,14.60
2023-04-23T23:43:00.926Z,14.60
2023-04-23T23:45:28.609Z,14.60
2023-04-23T23:48:00.222Z,14.60
2023-04-23T23:50:27.888Z,14.60
2023-04-23T23:52:55.359Z,14.60
2023-04-23T23:55:22.756Z,14.60
2023-04-23T23:57:50.220Z,14.60
